Blackall, Australia
Current Conditions -  °F | °C
As of 10:00 AM on Tuesday 25 Nov 2014 (Local Time) from YLRE Reporting Station
Clear Clear  
Wind Chill: 91°   Ceiling: Unl
Heat Index: 91°   Visibility: 6mi
Dew Point: 61°   Wind: 13mph
Humidity: 36%   Direction: 20°NNE
Pressure: 29.91"   Gusts: NA
Location:  24.42°S, 145.47°E
Report Text: YLRE 250000Z 02011KT CAVOK 33/16 Q1013
Loading
Personal Weather Stations






























Interactive Weather Map New forecast layout! Learn more

10-Day Weather Forecast

Advertisements
Track Severe Weather on mobile